sensor_id;sensor_type;location;lat;lon;timestamp;temperature;humidity
78733;DHT22;68056;52.530;5.454;2024-01-15T00:01:27;2.20;76.80
78733;DHT22;68056;52.530;5.454;2024-01-15T00:03:52;2.20;76.80
78733;DHT22;68056;52.530;5.454;2024-01-15T00:06:18;2.20;76.80
78733;DHT22;68056;52.530;5.454;2024-01-15T00:08:43;2.20;76.80
78733;DHT22;68056;52.530;5.454;2024-01-15T00:11:09;2.20;76.70
78733;DHT22;68056;52.530;5.454;2024-01-15T00:13:34;2.20;76.70
78733;DHT22;68056;52.530;5.454;2024-01-15T00:16:00;2.20;76.60
78733;DHT22;68056;52.530;5.454;2024-01-15T00:18:25;2.20;76.60
78733;DHT22;68056;52.530;5.454;2024-01-15T00:20:51;2.20;76.50
78733;DHT22;68056;52.530;5.454;2024-01-15T00:23:16;2.20;76.50
78733;DHT22;68056;52.530;5.454;2024-01-15T00:25:42;2.20;76.50
78733;DHT22;68056;52.530;5.454;2024-01-15T00:28:08;2.20;76.50
78733;DHT22;68056;52.530;5.454;2024-01-15T00:30:33;2.20;76.50
78733;DHT22;68056;52.530;5.454;2024-01-15T00:32:59;2.20;76.50
78733;DHT22;68056;52.530;5.454;2024-01-15T00:35:24;2.20;76.50
78733;DHT22;68056;52.530;5.454;2024-01-15T00:37:50;2.30;76.50
78733;DHT22;68056;52.530;5.454;2024-01-15T00:40:15;2.30;76.50
78733;DHT22;68056;52.530;5.454;2024-01-15T00:42:41;2.30;76.40
78733;DHT22;68056;52.530;5.454;2024-01-15T00:45:07;2.30;76.40
78733;DHT22;68056;52.530;5.454;2024-01-15T00:47:33;2.30;76.30
78733;DHT22;68056;52.530;5.454;2024-01-15T00:50:00;2.30;76.30
78733;DHT22;68056;52.530;5.454;2024-01-15T00:52:25;2.30;76.20
78733;DHT22;68056;52.530;5.454;2024-01-15T00:54:51;2.40;76.20
78733;DHT22;68056;52.530;5.454;2024-01-15T00:57:16;2.40;76.10
78733;DHT22;68056;52.530;5.454;2024-01-15T00:59:44;2.30;76.10
78733;DHT22;68056;52.530;5.454;2024-01-15T01:02:10;2.40;76.10
78733;DHT22;68056;52.530;5.454;2024-01-15T01:04:35;2.40;76.20
78733;DHT22;68056;52.530;5.454;2024-01-15T01:07:01;2.40;76.20
78733;DHT22;68056;52.530;5.454;2024-01-15T01:09:27;2.40;76.10
78733;DHT22;68056;52.530;5.454;2024-01-15T01:11:55;2.40;76.10
78733;DHT22;68056;52.530;5.454;2024-01-15T01:14:21;2.40;76.20
78733;DHT22;68056;52.530;5.454;2024-01-15T01:16:46;2.40;76.20
78733;DHT22;68056;52.530;5.454;2024-01-15T01:19:12;2.40;76.20
78733;DHT22;68056;52.530;5.454;2024-01-15T01:21:38;2.40;76.20
78733;DHT22;68056;52.530;5.454;2024-01-15T01:24:03;2.40;76.10
78733;DHT22;68056;52.530;5.454;2024-01-15T01:26:30;2.40;76.10
78733;DHT22;68056;52.530;5.454;2024-01-15T01:28:56;2.30;76.10
78733;DHT22;68056;52.530;5.454;2024-01-15T01:31:21;2.30;76.20
78733;DHT22;68056;52.530;5.454;2024-01-15T01:33:47;2.30;76.20
78733;DHT22;68056;52.530;5.454;2024-01-15T01:36:12;2.30;76.20
78733;DHT22;68056;52.530;5.454;2024-01-15T01:38:39;2.30;76.20
78733;DHT22;68056;52.530;5.454;2024-01-15T01:41:05;2.30;76.40
78733;DHT22;68056;52.530;5.454;2024-01-15T01:43:31;2.30;76.30
78733;DHT22;68056;52.530;5.454;2024-01-15T01:45:57;2.30;76.30
78733;DHT22;68056;52.530;5.454;2024-01-15T01:48:26;2.20;76.40
78733;DHT22;68056;52.530;5.454;2024-01-15T01:50:58;2.30;76.30
78733;DHT22;68056;52.530;5.454;2024-01-15T01:53:26;2.30;76.40
78733;DHT22;68056;52.530;5.454;2024-01-15T01:55:53;2.30;76.30
78733;DHT22;68056;52.530;5.454;2024-01-15T01:58:19;2.30;76.30
78733;DHT22;68056;52.530;5.454;2024-01-15T02:00:46;2.30;76.40
78733;DHT22;68056;52.530;5.454;2024-01-15T02:03:12;2.30;76.30
78733;DHT22;68056;52.530;5.454;2024-01-15T02:05:39;2.30;76.20
78733;DHT22;68056;52.530;5.454;2024-01-15T02:08:05;2.30;76.20
78733;DHT22;68056;52.530;5.454;2024-01-15T02:10:31;2.30;76.20
78733;DHT22;68056;52.530;5.454;2024-01-15T02:12:56;2.40;76.20
78733;DHT22;68056;52.530;5.454;2024-01-15T02:15:22;2.40;76.20
78733;DHT22;68056;52.530;5.454;2024-01-15T02:18:01;2.40;76.20
78733;DHT22;68056;52.530;5.454;2024-01-15T02:20:28;2.40;76.10
78733;DHT22;68056;52.530;5.454;2024-01-15T02:22:53;2.30;76.10
78733;DHT22;68056;52.530;5.454;2024-01-15T02:25:19;2.30;76.20
78733;DHT22;68056;52.530;5.454;2024-01-15T02:27:46;2.30;76.20
78733;DHT22;68056;52.530;5.454;2024-01-15T02:30:12;2.30;76.10
78733;DHT22;68056;52.530;5.454;2024-01-15T02:32:41;2.30;76.20
78733;DHT22;68056;52.530;5.454;2024-01-15T02:35:06;2.30;76.20
78733;DHT22;68056;52.530;5.454;2024-01-15T02:37:32;2.30;76.20
78733;DHT22;68056;52.530;5.454;2024-01-15T02:39:57;2.30;76.20
78733;DHT22;68056;52.530;5.454;2024-01-15T02:42:23;2.30;76.30
78733;DHT22;68056;52.530;5.454;2024-01-15T02:44:48;2.30;76.30
78733;DHT22;68056;52.530;5.454;2024-01-15T02:47:14;2.30;76.40
78733;DHT22;68056;52.530;5.454;2024-01-15T02:49:40;2.30;76.40
78733;DHT22;68056;52.530;5.454;2024-01-15T02:52:07;2.30;76.40
78733;DHT22;68056;52.530;5.454;2024-01-15T02:54:33;2.30;76.40
78733;DHT22;68056;52.530;5.454;2024-01-15T02:56:58;2.40;76.40
78733;DHT22;68056;52.530;5.454;2024-01-15T02:59:24;2.40;76.50
78733;DHT22;68056;52.530;5.454;2024-01-15T03:01:50;2.40;76.40
78733;DHT22;68056;52.530;5.454;2024-01-15T03:04:15;2.40;76.40
78733;DHT22;68056;52.530;5.454;2024-01-15T03:06:41;2.40;76.50
78733;DHT22;68056;52.530;5.454;2024-01-15T03:09:06;2.40;76.40
78733;DHT22;68056;52.530;5.454;2024-01-15T03:11:39;2.40;76.40
78733;DHT22;68056;52.530;5.454;2024-01-15T03:14:05;2.30;76.40
78733;DHT22;68056;52.530;5.454;2024-01-15T03:16:30;2.30;76.30
78733;DHT22;68056;52.530;5.454;2024-01-15T03:18:56;2.30;76.40
78733;DHT22;68056;52.530;5.454;2024-01-15T03:21:21;2.30;76.30
78733;DHT22;68056;52.530;5.454;2024-01-15T03:23:47;2.30;76.30
78733;DHT22;68056;52.530;5.454;2024-01-15T03:26:12;2.20;76.30
78733;DHT22;68056;52.530;5.454;2024-01-15T03:28:38;2.20;76.20
78733;DHT22;68056;52.530;5.454;2024-01-15T03:31:03;2.20;76.20
78733;DHT22;68056;52.530;5.454;2024-01-15T03:33:29;2.20;76.20
78733;DHT22;68056;52.530;5.454;2024-01-15T03:35:54;2.10;76.40
78733;DHT22;68056;52.530;5.454;2024-01-15T03:38:20;2.20;76.30
78733;DHT22;68056;52.530;5.454;2024-01-15T03:40:45;2.20;76.20
78733;DHT22;68056;52.530;5.454;2024-01-15T03:43:12;2.20;76.30
78733;DHT22;68056;52.530;5.454;2024-01-15T03:45:37;2.20;76.30
78733;DHT22;68056;52.530;5.454;2024-01-15T03:48:03;2.20;76.30
78733;DHT22;68056;52.530;5.454;2024-01-15T03:50:29;2.20;76.30
78733;DHT22;68056;52.530;5.454;2024-01-15T03:52:54;2.30;76.30
78733;DHT22;68056;52.530;5.454;2024-01-15T03:55:20;2.30;76.20
78733;DHT22;68056;52.530;5.454;2024-01-15T03:57:45;2.40;76.20
78733;DHT22;68056;52.530;5.454;2024-01-15T04:00:11;2.40;76.20
78733;DHT22;68056;52.530;5.454;2024-01-15T04:02:37;2.40;76.10
78733;DHT22;68056;52.530;5.454;2024-01-15T04:05:03;2.30;76.10
78733;DHT22;68056;52.530;5.454;2024-01-15T04:07:28;2.30;76.10
78733;DHT22;68056;52.530;5.454;2024-01-15T04:09:54;2.30;76.20
78733;DHT22;68056;52.530;5.454;2024-01-15T04:12:19;2.40;76.20
78733;DHT22;68056;52.530;5.454;2024-01-15T04:14:45;2.40;76.20
78733;DHT22;68056;52.530;5.454;2024-01-15T04:17:11;2.40;76.30
78733;DHT22;68056;52.530;5.454;2024-01-15T04:19:36;2.30;76.40
78733;DHT22;68056;52.530;5.454;2024-01-15T04:22:02;2.30;76.30
78733;DHT22;68056;52.530;5.454;2024-01-15T04:24:27;2.30;76.30
78733;DHT22;68056;52.530;5.454;2024-01-15T04:26:53;2.30;76.40
78733;DHT22;68056;52.530;5.454;2024-01-15T04:29:18;2.30;76.50
78733;DHT22;68056;52.530;5.454;2024-01-15T04:31:44;2.30;76.50
78733;DHT22;68056;52.530;5.454;2024-01-15T04:34:09;2.30;76.50
78733;DHT22;68056;52.530;5.454;2024-01-15T04:36:39;2.30;76.50
78733;DHT22;68056;52.530;5.454;2024-01-15T04:39:05;2.30;76.60
78733;DHT22;68056;52.530;5.454;2024-01-15T04:41:31;2.30;76.60
78733;DHT22;68056;52.530;5.454;2024-01-15T04:43:57;2.30;76.70
78733;DHT22;68056;52.530;5.454;2024-01-15T04:46:22;2.30;76.60
78733;DHT22;68056;52.530;5.454;2024-01-15T04:48:48;2.30;76.60
78733;DHT22;68056;52.530;5.454;2024-01-15T04:51:13;2.40;76.60
78733;DHT22;68056;52.530;5.454;2024-01-15T04:53:39;2.40;76.50
78733;DHT22;68056;52.530;5.454;2024-01-15T04:56:04;2.40;76.40
78733;DHT22;68056;52.530;5.454;2024-01-15T04:58:30;2.40;76.40
78733;DHT22;68056;52.530;5.454;2024-01-15T05:00:55;2.30;76.50
78733;DHT22;68056;52.530;5.454;2024-01-15T05:03:21;2.30;76.50
78733;DHT22;68056;52.530;5.454;2024-01-15T05:05:47;2.30;76.50
78733;DHT22;68056;52.530;5.454;2024-01-15T05:08:12;2.20;76.50
78733;DHT22;68056;52.530;5.454;2024-01-15T05:10:38;2.20;76.50
78733;DHT22;68056;52.530;5.454;2024-01-15T05:13:03;2.20;76.50
78733;DHT22;68056;52.530;5.454;2024-01-15T05:15:29;2.10;76.70
78733;DHT22;68056;52.530;5.454;2024-01-15T05:17:55;2.10;76.70
78733;DHT22;68056;52.530;5.454;2024-01-15T05:20:20;2.00;76.80
78733;DHT22;68056;52.530;5.454;2024-01-15T05:22:46;2.00;76.80
78733;DHT22;68056;52.530;5.454;2024-01-15T05:25:12;2.00;76.90
78733;DHT22;68056;52.530;5.454;2024-01-15T05:27:37;1.90;76.90
78733;DHT22;68056;52.530;5.454;2024-01-15T05:30:03;1.90;77.00
78733;DHT22;68056;52.530;5.454;2024-01-15T05:32:29;1.90;77.00
78733;DHT22;68056;52.530;5.454;2024-01-15T05:34:54;1.90;77.00
78733;DHT22;68056;52.530;5.454;2024-01-15T05:37:20;1.90;77.00
78733;DHT22;68056;52.530;5.454;2024-01-15T05:39:46;2.00;77.00
78733;DHT22;68056;52.530;5.454;2024-01-15T05:42:11;2.00;77.00
78733;DHT22;68056;52.530;5.454;2024-01-15T05:44:37;2.00;76.90
78733;DHT22;68056;52.530;5.454;2024-01-15T05:47:02;2.10;76.80
78733;DHT22;68056;52.530;5.454;2024-01-15T05:49:29;2.10;76.80
78733;DHT22;68056;52.530;5.454;2024-01-15T05:51:55;2.10;76.70
78733;DHT22;68056;52.530;5.454;2024-01-15T05:54:20;2.10;76.70
78733;DHT22;68056;52.530;5.454;2024-01-15T05:56:46;2.10;76.60
78733;DHT22;68056;52.530;5.454;2024-01-15T05:59:11;2.10;76.60
78733;DHT22;68056;52.530;5.454;2024-01-15T06:01:37;2.10;76.70
78733;DHT22;68056;52.530;5.454;2024-01-15T06:04:03;2.10;76.60
78733;DHT22;68056;52.530;5.454;2024-01-15T06:06:28;2.00;76.70
78733;DHT22;68056;52.530;5.454;2024-01-15T06:08:54;2.00;76.60
78733;DHT22;68056;52.530;5.454;2024-01-15T06:11:19;2.00;76.60
78733;DHT22;68056;52.530;5.454;2024-01-15T06:13:45;2.00;76.60
78733;DHT22;68056;52.530;5.454;2024-01-15T06:16:17;1.90;76.60
78733;DHT22;68056;52.530;5.454;2024-01-15T06:18:45;1.90;76.60
78733;DHT22;68056;52.530;5.454;2024-01-15T06:21:11;1.80;76.70
78733;DHT22;68056;52.530;5.454;2024-01-15T06:23:38;1.80;76.70
78733;DHT22;68056;52.530;5.454;2024-01-15T06:26:04;1.80;76.70
78733;DHT22;68056;52.530;5.454;2024-01-15T06:28:30;1.80;76.80
78733;DHT22;68056;52.530;5.454;2024-01-15T06:30:57;1.70;76.80
78733;DHT22;68056;52.530;5.454;2024-01-15T06:33:23;1.70;76.80
78733;DHT22;68056;52.530;5.454;2024-01-15T06:35:48;1.70;76.90
78733;DHT22;68056;52.530;5.454;2024-01-15T06:38:15;1.70;76.80
78733;DHT22;68056;52.530;5.454;2024-01-15T06:40:40;1.70;77.00
78733;DHT22;68056;52.530;5.454;2024-01-15T06:43:11;1.80;76.90
78733;DHT22;68056;52.530;5.454;2024-01-15T06:45:37;1.80;76.90
78733;DHT22;68056;52.530;5.454;2024-01-15T06:48:03;1.80;76.90
78733;DHT22;68056;52.530;5.454;2024-01-15T06:50:28;1.90;76.80
78733;DHT22;68056;52.530;5.454;2024-01-15T06:52:54;1.90;76.80
78733;DHT22;68056;52.530;5.454;2024-01-15T06:55:19;1.90;76.70
78733;DHT22;68056;52.530;5.454;2024-01-15T06:57:45;1.90;76.80
78733;DHT22;68056;52.530;5.454;2024-01-15T07:00:11;1.90;76.70
78733;DHT22;68056;52.530;5.454;2024-01-15T07:02:37;1.90;76.70
78733;DHT22;68056;52.530;5.454;2024-01-15T07:05:02;1.90;76.70
78733;DHT22;68056;52.530;5.454;2024-01-15T07:07:30;1.90;76.70
78733;DHT22;68056;52.530;5.454;2024-01-15T07:09:56;1.80;76.80
78733;DHT22;68056;52.530;5.454;2024-01-15T07:12:22;1.80;76.80
78733;DHT22;68056;52.530;5.454;2024-01-15T07:14:48;1.80;76.80
78733;DHT22;68056;52.530;5.454;2024-01-15T07:17:13;1.80;76.80
78733;DHT22;68056;52.530;5.454;2024-01-15T07:19:39;1.80;76.90
78733;DHT22;68056;52.530;5.454;2024-01-15T07:22:04;1.80;76.80
78733;DHT22;68056;52.530;5.454;2024-01-15T07:24:30;1.80;76.90
78733;DHT22;68056;52.530;5.454;2024-01-15T07:26:55;1.80;76.90
78733;DHT22;68056;52.530;5.454;2024-01-15T07:29:21;1.80;76.90
78733;DHT22;68056;52.530;5.454;2024-01-15T07:31:50;1.80;76.90
78733;DHT22;68056;52.530;5.454;2024-01-15T07:34:16;1.80;76.80
78733;DHT22;68056;52.530;5.454;2024-01-15T07:36:44;1.80;76.80
78733;DHT22;68056;52.530;5.454;2024-01-15T07:39:10;1.80;76.70
78733;DHT22;68056;52.530;5.454;2024-01-15T07:41:35;1.80;76.70
78733;DHT22;68056;52.530;5.454;2024-01-15T07:44:02;1.80;76.60
78733;DHT22;68056;52.530;5.454;2024-01-15T07:46:27;1.80;76.60
78733;DHT22;68056;52.530;5.454;2024-01-15T07:48:53;1.70;76.60
78733;DHT22;68056;52.530;5.454;2024-01-15T07:51:25;1.70;76.60
78733;DHT22;68056;52.530;5.454;2024-01-15T07:53:52;1.70;76.60
78733;DHT22;68056;52.530;5.454;2024-01-15T07:56:18;1.70;76.50
78733;DHT22;68056;52.530;5.454;2024-01-15T07:58:44;1.70;76.50
78733;DHT22;68056;52.530;5.454;2024-01-15T08:01:09;1.70;76.50
78733;DHT22;68056;52.530;5.454;2024-01-15T08:03:35;1.70;76.50
78733;DHT22;68056;52.530;5.454;2024-01-15T08:06:04;1.70;76.50
78733;DHT22;68056;52.530;5.454;2024-01-15T08:08:30;1.70;76.50
78733;DHT22;68056;52.530;5.454;2024-01-15T08:10:56;1.70;76.50
78733;DHT22;68056;52.530;5.454;2024-01-15T08:13:21;1.60;76.50
78733;DHT22;68056;52.530;5.454;2024-01-15T08:15:47;1.70;76.50
78733;DHT22;68056;52.530;5.454;2024-01-15T08:18:12;1.70;76.50
78733;DHT22;68056;52.530;5.454;2024-01-15T08:20:38;1.70;76.50
78733;DHT22;68056;52.530;5.454;2024-01-15T08:23:04;1.70;76.50
78733;DHT22;68056;52.530;5.454;2024-01-15T08:25:30;1.70;76.40
78733;DHT22;68056;52.530;5.454;2024-01-15T08:27:58;1.80;76.40
78733;DHT22;68056;52.530;5.454;2024-01-15T08:30:24;1.80;76.40
78733;DHT22;68056;52.530;5.454;2024-01-15T08:32:53;1.80;76.30
78733;DHT22;68056;52.530;5.454;2024-01-15T08:35:19;1.80;76.40
78733;DHT22;68056;52.530;5.454;2024-01-15T08:37:51;1.90;76.40
78733;DHT22;68056;52.530;5.454;2024-01-15T08:40:17;2.00;76.40
78733;DHT22;68056;52.530;5.454;2024-01-15T08:42:43;2.10;76.40
78733;DHT22;68056;52.530;5.454;2024-01-15T08:45:09;2.20;76.40
78733;DHT22;68056;52.530;5.454;2024-01-15T08:47:35;2.30;76.10
78733;DHT22;68056;52.530;5.454;2024-01-15T08:50:01;2.40;75.90
78733;DHT22;68056;52.530;5.454;2024-01-15T08:52:26;2.40;75.70
78733;DHT22;68056;52.530;5.454;2024-01-15T08:54:52;2.40;75.60
78733;DHT22;68056;52.530;5.454;2024-01-15T08:57:18;2.30;75.50
78733;DHT22;68056;52.530;5.454;2024-01-15T08:59:43;2.20;75.60
78733;DHT22;68056;52.530;5.454;2024-01-15T09:02:10;2.20;75.70
78733;DHT22;68056;52.530;5.454;2024-01-15T09:04:36;2.10;75.80
78733;DHT22;68056;52.530;5.454;2024-01-15T09:07:01;2.00;75.90
78733;DHT22;68056;52.530;5.454;2024-01-15T09:09:27;2.00;76.00
78733;DHT22;68056;52.530;5.454;2024-01-15T09:11:53;2.00;76.20
78733;DHT22;68056;52.530;5.454;2024-01-15T09:14:18;2.00;76.20
78733;DHT22;68056;52.530;5.454;2024-01-15T09:16:44;2.00;76.30
78733;DHT22;68056;52.530;5.454;2024-01-15T09:19:10;2.30;76.70
78733;DHT22;68056;52.530;5.454;2024-01-15T09:21:38;2.70;76.30
78733;DHT22;68056;52.530;5.454;2024-01-15T09:24:04;2.80;75.40
78733;DHT22;68056;52.530;5.454;2024-01-15T09:26:29;2.80;75.10
78733;DHT22;68056;52.530;5.454;2024-01-15T09:28:55;2.60;75.20
78733;DHT22;68056;52.530;5.454;2024-01-15T09:31:20;2.70;75.60
78733;DHT22;68056;52.530;5.454;2024-01-15T09:33:47;2.80;75.70
78733;DHT22;68056;52.530;5.454;2024-01-15T09:36:13;3.10;75.80
78733;DHT22;68056;52.530;5.454;2024-01-15T09:38:40;3.50;75.30
78733;DHT22;68056;52.530;5.454;2024-01-15T09:41:07;3.90;74.60
78733;DHT22;68056;52.530;5.454;2024-01-15T09:43:33;4.30;74.10
78733;DHT22;68056;52.530;5.454;2024-01-15T09:45:58;4.50;73.50
78733;DHT22;68056;52.530;5.454;2024-01-15T09:48:24;4.70;72.90
78733;DHT22;68056;52.530;5.454;2024-01-15T09:50:50;4.70;72.60
78733;DHT22;68056;52.530;5.454;2024-01-15T09:53:16;4.50;72.70
78733;DHT22;68056;52.530;5.454;2024-01-15T09:55:42;4.40;73.00
78733;DHT22;68056;52.530;5.454;2024-01-15T09:58:08;4.30;73.30
78733;DHT22;68056;52.530;5.454;2024-01-15T10:00:34;4.20;73.30
78733;DHT22;68056;52.530;5.454;2024-01-15T10:03:05;4.10;73.70
78733;DHT22;68056;52.530;5.454;2024-01-15T10:05:31;4.10;73.80
78733;DHT22;68056;52.530;5.454;2024-01-15T10:07:57;4.00;73.60
78733;DHT22;68056;52.530;5.454;2024-01-15T10:10:25;3.90;73.80
78733;DHT22;68056;52.530;5.454;2024-01-15T10:12:51;3.80;74.10
78733;DHT22;68056;52.530;5.454;2024-01-15T10:15:16;3.90;74.20
78733;DHT22;68056;52.530;5.454;2024-01-15T10:17:43;3.90;74.00
78733;DHT22;68056;52.530;5.454;2024-01-15T10:20:12;3.90;74.00
78733;DHT22;68056;52.530;5.454;2024-01-15T10:22:41;3.90;74.10
78733;DHT22;68056;52.530;5.454;2024-01-15T10:25:14;3.90;74.10
78733;DHT22;68056;52.530;5.454;2024-01-15T10:27:43;3.90;73.90
78733;DHT22;68056;52.530;5.454;2024-01-15T10:30:09;3.90;74.00
78733;DHT22;68056;52.530;5.454;2024-01-15T10:32:35;3.80;74.00
78733;DHT22;68056;52.530;5.454;2024-01-15T10:35:01;3.80;74.00
78733;DHT22;68056;52.530;5.454;2024-01-15T10:37:26;3.70;74.10
78733;DHT22;68056;52.530;5.454;2024-01-15T10:39:52;3.50;74.10
78733;DHT22;68056;52.530;5.454;2024-01-15T10:42:18;3.50;74.40
78733;DHT22;68056;52.530;5.454;2024-01-15T10:44:44;3.40;74.50
78733;DHT22;68056;52.530;5.454;2024-01-15T10:47:12;3.30;74.70
78733;DHT22;68056;52.530;5.454;2024-01-15T10:49:38;3.30;74.80
78733;DHT22;68056;52.530;5.454;2024-01-15T10:52:03;3.30;74.90
78733;DHT22;68056;52.530;5.454;2024-01-15T10:54:29;3.30;75.10
78733;DHT22;68056;52.530;5.454;2024-01-15T10:56:58;3.50;75.20
78733;DHT22;68056;52.530;5.454;2024-01-15T10:59:24;3.70;75.00
78733;DHT22;68056;52.530;5.454;2024-01-15T11:01:51;3.90;74.70
78733;DHT22;68056;52.530;5.454;2024-01-15T11:04:22;4.00;74.20
78733;DHT22;68056;52.530;5.454;2024-01-15T11:06:53;4.00;74.00
78733;DHT22;68056;52.530;5.454;2024-01-15T11:09:19;3.90;73.90
78733;DHT22;68056;52.530;5.454;2024-01-15T11:11:46;3.70;74.00
78733;DHT22;68056;52.530;5.454;2024-01-15T11:14:40;3.50;74.30
78733;DHT22;68056;52.530;5.454;2024-01-15T11:17:09;3.30;74.60
78733;DHT22;68056;52.530;5.454;2024-01-15T11:19:36;3.10;75.00
78733;DHT22;68056;52.530;5.454;2024-01-15T11:22:03;3.00;75.20
78733;DHT22;68056;52.530;5.454;2024-01-15T11:24:39;3.00;75.40
78733;DHT22;68056;52.530;5.454;2024-01-15T11:27:06;2.90;75.40
78733;DHT22;68056;52.530;5.454;2024-01-15T11:29:34;2.90;75.50
78733;DHT22;68056;52.530;5.454;2024-01-15T11:32:10;2.80;75.60
78733;DHT22;68056;52.530;5.454;2024-01-15T11:34:55;2.90;75.50
78733;DHT22;68056;52.530;5.454;2024-01-15T11:37:26;2.90;75.60
78733;DHT22;68056;52.530;5.454;2024-01-15T11:39:53;2.90;75.50
78733;DHT22;68056;52.530;5.454;2024-01-15T11:42:20;2.90;75.50
78733;DHT22;68056;52.530;5.454;2024-01-15T11:44:46;2.90;75.50
78733;DHT22;68056;52.530;5.454;2024-01-15T11:47:12;2.90;75.50
78733;DHT22;68056;52.530;5.454;2024-01-15T11:50:02;2.90;75.50
78733;DHT22;68056;52.530;5.454;2024-01-15T11:52:37;2.90;75.60
78733;DHT22;68056;52.530;5.454;2024-01-15T11:55:19;2.90;75.60
78733;DHT22;68056;52.530;5.454;2024-01-15T11:57:52;2.90;75.50
78733;DHT22;68056;52.530;5.454;2024-01-15T12:00:20;2.90;75.50
78733;DHT22;68056;52.530;5.454;2024-01-15T12:02:48;3.00;75.70
78733;DHT22;68056;52.530;5.454;2024-01-15T12:05:15;3.30;75.60
78733;DHT22;68056;52.530;5.454;2024-01-15T12:07:42;3.70;75.40
78733;DHT22;68056;52.530;5.454;2024-01-15T12:10:15;4.20;74.80
78733;DHT22;68056;52.530;5.454;2024-01-15T12:15:19;5.00;73.20
78733;DHT22;68056;52.530;5.454;2024-01-15T12:17:45;5.10;72.30
78733;DHT22;68056;52.530;5.454;2024-01-15T12:20:14;5.00;71.90
78733;DHT22;68056;52.530;5.454;2024-01-15T12:22:41;4.70;72.10
78733;DHT22;68056;52.530;5.454;2024-01-15T12:25:07;4.50;72.50
78733;DHT22;68056;52.530;5.454;2024-01-15T12:27:32;4.20;72.80
78733;DHT22;68056;52.530;5.454;2024-01-15T12:29:58;4.00;73.10
78733;DHT22;68056;52.530;5.454;2024-01-15T12:32:24;3.90;73.40
78733;DHT22;68056;52.530;5.454;2024-01-15T12:34:50;3.70;73.80
78733;DHT22;68056;52.530;5.454;2024-01-15T12:37:21;3.90;74.50
78733;DHT22;68056;52.530;5.454;2024-01-15T12:39:47;4.40;74.30
78733;DHT22;68056;52.530;5.454;2024-01-15T12:42:16;5.00;73.50
78733;DHT22;68056;52.530;5.454;2024-01-15T12:44:42;5.40;72.70
78733;DHT22;68056;52.530;5.454;2024-01-15T12:47:08;5.60;72.00
78733;DHT22;68056;52.530;5.454;2024-01-15T12:49:39;5.90;71.50
78733;DHT22;68056;52.530;5.454;2024-01-15T12:52:08;6.00;70.90
78733;DHT22;68056;52.530;5.454;2024-01-15T12:54:34;5.70;70.70
78733;DHT22;68056;52.530;5.454;2024-01-15T12:57:00;5.40;71.20
78733;DHT22;68056;52.530;5.454;2024-01-15T12:59:25;5.10;71.70
78733;DHT22;68056;52.530;5.454;2024-01-15T13:01:51;4.90;72.10
78733;DHT22;68056;52.530;5.454;2024-01-15T13:04:23;4.70;72.40
78733;DHT22;68056;52.530;5.454;2024-01-15T13:06:52;4.70;72.60
78733;DHT22;68056;52.530;5.454;2024-01-15T13:09:18;4.70;72.90
78733;DHT22;68056;52.530;5.454;2024-01-15T13:11:45;5.10;72.80
78733;DHT22;68056;52.530;5.454;2024-01-15T13:14:11;5.40;72.10
78733;DHT22;68056;52.530;5.454;2024-01-15T13:16:36;5.50;71.40
78733;DHT22;68056;52.530;5.454;2024-01-15T13:19:02;5.30;71.40
78733;DHT22;68056;52.530;5.454;2024-01-15T13:21:29;5.00;71.70
78733;DHT22;68056;52.530;5.454;2024-01-15T13:23:55;4.70;72.10
78733;DHT22;68056;52.530;5.454;2024-01-15T13:26:21;4.40;72.50
78733;DHT22;68056;52.530;5.454;2024-01-15T13:28:46;4.20;72.70
78733;DHT22;68056;52.530;5.454;2024-01-15T13:31:12;4.10;73.00
78733;DHT22;68056;52.530;5.454;2024-01-15T13:33:38;4.00;73.10
78733;DHT22;68056;52.530;5.454;2024-01-15T13:36:04;3.90;73.00
78733;DHT22;68056;52.530;5.454;2024-01-15T13:38:33;3.70;73.20
78733;DHT22;68056;52.530;5.454;2024-01-15T13:41:02;3.60;73.30
78733;DHT22;68056;52.530;5.454;2024-01-15T13:43:28;3.50;73.60
78733;DHT22;68056;52.530;5.454;2024-01-15T13:45:53;3.60;73.90
78733;DHT22;68056;52.530;5.454;2024-01-15T13:48:20;3.80;73.80
78733;DHT22;68056;52.530;5.454;2024-01-15T13:50:45;4.10;73.50
78733;DHT22;68056;52.530;5.454;2024-01-15T13:53:11;4.30;73.00
78733;DHT22;68056;52.530;5.454;2024-01-15T13:55:37;4.40;72.50
78733;DHT22;68056;52.530;5.454;2024-01-15T13:58:02;4.30;72.40
78733;DHT22;68056;52.530;5.454;2024-01-15T14:00:31;4.20;72.50
78733;DHT22;68056;52.530;5.454;2024-01-15T14:02:57;4.10;72.80
78733;DHT22;68056;52.530;5.454;2024-01-15T14:05:23;4.30;73.10
78733;DHT22;68056;52.530;5.454;2024-01-15T14:07:49;4.50;72.90
78733;DHT22;68056;52.530;5.454;2024-01-15T14:10:14;4.90;72.30
78733;DHT22;68056;52.530;5.454;2024-01-15T14:12:40;4.70;71.90
78733;DHT22;68056;52.530;5.454;2024-01-15T14:15:06;4.60;71.90
78733;DHT22;68056;52.530;5.454;2024-01-15T14:17:32;4.40;72.20
78733;DHT22;68056;52.530;5.454;2024-01-15T14:19:57;4.30;72.50
78733;DHT22;68056;52.530;5.454;2024-01-15T14:22:23;4.20;72.80
78733;DHT22;68056;52.530;5.454;2024-01-15T14:24:49;4.20;72.90
78733;DHT22;68056;52.530;5.454;2024-01-15T14:27:15;4.40;72.70
78733;DHT22;68056;52.530;5.454;2024-01-15T14:29:40;4.50;72.30
78733;DHT22;68056;52.530;5.454;2024-01-15T14:32:06;4.60;71.90
78733;DHT22;68056;52.530;5.454;2024-01-15T14:34:32;4.70;71.70
78733;DHT22;68056;52.530;5.454;2024-01-15T14:36:57;4.70;71.60
78733;DHT22;68056;52.530;5.454;2024-01-15T14:39:23;4.60;71.70
78733;DHT22;68056;52.530;5.454;2024-01-15T14:41:49;4.60;71.60
78733;DHT22;68056;52.530;5.454;2024-01-15T14:44:14;4.40;71.50
78733;DHT22;68056;52.530;5.454;2024-01-15T14:46:40;4.20;71.70
78733;DHT22;68056;52.530;5.454;2024-01-15T14:49:06;3.90;72.00
78733;DHT22;68056;52.530;5.454;2024-01-15T14:51:32;3.60;72.60
78733;DHT22;68056;52.530;5.454;2024-01-15T14:53:57;3.50;72.90
78733;DHT22;68056;52.530;5.454;2024-01-15T14:56:25;3.40;73.10
78733;DHT22;68056;52.530;5.454;2024-01-15T14:58:51;3.30;73.40
78733;DHT22;68056;52.530;5.454;2024-01-15T15:01:16;3.20;73.50
78733;DHT22;68056;52.530;5.454;2024-01-15T15:03:42;3.10;73.60
78733;DHT22;68056;52.530;5.454;2024-01-15T15:06:09;3.10;73.60
78733;DHT22;68056;52.530;5.454;2024-01-15T15:08:35;3.10;73.70
78733;DHT22;68056;52.530;5.454;2024-01-15T15:11:03;3.00;73.60
78733;DHT22;68056;52.530;5.454;2024-01-15T15:13:29;3.00;73.70
78733;DHT22;68056;52.530;5.454;2024-01-15T15:15:55;3.00;73.70
78733;DHT22;68056;52.530;5.454;2024-01-15T15:18:21;3.00;73.50
78733;DHT22;68056;52.530;5.454;2024-01-15T15:20:49;3.10;73.30
78733;DHT22;68056;52.530;5.454;2024-01-15T15:23:15;3.10;73.20
78733;DHT22;68056;52.530;5.454;2024-01-15T15:25:41;3.10;73.10
78733;DHT22;68056;52.530;5.454;2024-01-15T15:28:08;3.00;73.00
78733;DHT22;68056;52.530;5.454;2024-01-15T15:30:34;3.00;73.00
78733;DHT22;68056;52.530;5.454;2024-01-15T15:32:59;2.90;73.00
78733;DHT22;68056;52.530;5.454;2024-01-15T15:35:25;2.80;73.00
78733;DHT22;68056;52.530;5.454;2024-01-15T15:37:50;2.70;73.20
78733;DHT22;68056;52.530;5.454;2024-01-15T15:40:16;2.70;73.20
78733;DHT22;68056;52.530;5.454;2024-01-15T15:42:43;2.60;73.20